Time;durP1;ratioP1;P1;durP2;ratioP2;P2;SDS_P1;SDS_P2;PMS_P1;PMS_P2;Temp;Humidity;BMP_temperature;BMP_pressure;BME280_temperature;BME280_humidity;BME280_pressure;Samples;Min_cycle;Max_cycle;Signal;HPM_P1;HPM_P2
2021/04/06 00:00:22;;;;;;;6.10;1.20;;;1.80;99.90;;;;;;4994275;28;20193;-74
2021/04/06 00:02:49;;;;;;;5.07;1.40;;;1.80;99.90;;;;;;5010315;28;20186;-75
2021/04/06 00:05:15;;;;;;;5.27;1.50;;;1.90;99.90;;;;;;4994046;28;20203;-72
2021/04/06 00:07:41;;;;;;;4.80;1.20;;;1.90;99.90;;;;;;4994261;28;20209;-73
2021/04/06 00:10:13;;;;;;;6.20;1.50;;;1.90;99.90;;;;;;4994008;28;20183;-72
2021/04/06 00:12:38;;;;;;;5.60;1.70;;;1.80;99.90;;;;;;4995508;28;20268;-72
2021/04/06 00:15:07;;;;;;;4.50;1.50;;;1.80;99.90;;;;;;4993781;28;20324;-73
2021/04/06 00:17:32;;;;;;;4.67;1.10;;;1.80;99.90;;;;;;4994958;28;20650;-74
2021/04/06 00:19:58;;;;;;;4.40;1.37;;;1.70;99.90;;;;;;4993787;28;20190;-74
2021/04/06 00:22:25;;;;;;;5.37;1.43;;;1.60;99.90;;;;;;4994067;28;20185;-72
2021/04/06 00:24:51;;;;;;;3.13;1.30;;;1.60;99.90;;;;;;4993822;28;20554;-74
2021/04/06 00:27:21;;;;;;;4.33;1.20;;;1.50;99.90;;;;;;5009848;28;20236;-74
2021/04/06 00:29:51;;;;;;;4.00;1.23;;;1.50;99.90;;;;;;4993577;28;20187;-73
2021/04/06 00:32:16;;;;;;;4.60;1.10;;;1.50;99.90;;;;;;4993821;28;20203;-75
2021/04/06 00:34:42;;;;;;;5.97;1.30;;;1.40;99.90;;;;;;4993775;28;20191;-73
2021/04/06 00:37:10;;;;;;;4.23;1.30;;;1.40;99.90;;;;;;4993485;28;20551;-71
2021/04/06 00:39:36;;;;;;;4.50;1.10;;;1.30;99.90;;;;;;4993598;28;20191;-72
2021/04/06 00:42:12;;;;;;;5.87;1.23;;;1.30;99.90;;;;;;4993625;28;20544;-75
2021/04/06 00:44:40;;;;;;;2.77;1.20;;;1.30;99.90;;;;;;5009983;28;20665;-73
2021/04/06 00:47:06;;;;;;;5.20;1.10;;;1.20;99.90;;;;;;4993183;28;20673;-73
2021/04/06 00:49:33;;;;;;;4.53;1.23;;;1.20;99.90;;;;;;4976297;28;20213;-71
2021/04/06 00:51:58;;;;;;;4.90;1.10;;;1.20;99.90;;;;;;5009993;28;20646;-73
2021/04/06 00:54:24;;;;;;;5.60;1.13;;;1.20;99.90;;;;;;4977362;28;20321;-72
2021/04/06 00:56:50;;;;;;;4.30;1.03;;;1.30;99.90;;;;;;4993061;28;20186;-71
2021/04/06 00:59:22;;;;;;;4.23;1.30;;;1.30;99.90;;;;;;4993201;28;20194;-71
2021/04/06 01:01:49;;;;;;;4.10;1.00;;;1.30;99.90;;;;;;4993222;28;20246;-72
2021/04/06 01:04:21;;;;;;;4.77;1.40;;;1.30;99.90;;;;;;5009342;28;20207;-72
2021/04/06 01:07:07;;;;;;;3.90;1.10;;;1.30;99.90;;;;;;4992940;28;20244;-72
2021/04/06 01:09:42;;;;;;;2.83;1.20;;;1.30;99.90;;;;;;5007798;28;20657;-74
2021/04/06 01:12:09;;;;;;;5.20;1.23;;;1.30;99.90;;;;;;4993100;28;20277;-72
2021/04/06 01:14:37;;;;;;;3.60;0.90;;;1.30;99.90;;;;;;5009056;28;20297;-71
2021/04/06 01:17:04;;;;;;;4.37;1.17;;;1.30;99.90;;;;;;4976763;28;20670;-72
2021/04/06 01:19:30;;;;;;;3.87;1.00;;;1.20;99.90;;;;;;5009218;28;20617;-73
2021/04/06 01:21:57;;;;;;;4.70;1.00;;;1.20;99.90;;;;;;4992530;28;20195;-73
2021/04/06 01:24:24;;;;;;;7.20;1.30;;;1.10;99.90;;;;;;5009126;28;20207;-71
2021/04/06 01:26:50;;;;;;;8.50;1.07;;;1.10;99.90;;;;;;5009114;28;20230;-73
2021/04/06 01:29:16;;;;;;;5.60;1.03;;;1.10;99.90;;;;;;4992232;28;20532;-71
2021/04/06 01:31:42;;;;;;;5.90;1.17;;;1.10;99.90;;;;;;5008949;28;20254;-72
2021/04/06 01:34:07;;;;;;;3.27;1.10;;;1.10;99.90;;;;;;4992557;28;20478;-71
2021/04/06 01:36:33;;;;;;;2.23;0.97;;;1.10;99.90;;;;;;5008983;28;20188;-72
2021/04/06 01:38:58;;;;;;;3.70;1.00;;;1.10;99.90;;;;;;4976394;28;20201;-73
2021/04/06 01:41:24;;;;;;;6.47;1.20;;;1.20;99.90;;;;;;5008407;28;20178;-75
2021/04/06 01:43:50;;;;;;;5.63;1.40;;;1.20;99.90;;;;;;4992809;28;20209;-72
2021/04/06 01:46:16;;;;;;;6.53;1.53;;;1.20;99.90;;;;;;4992604;28;20182;-71
2021/04/06 01:48:43;;;;;;;5.00;1.30;;;1.10;99.90;;;;;;4992270;28;20218;-75
2021/04/06 01:51:08;;;;;;;9.20;1.13;;;1.10;99.90;;;;;;4992028;28;20182;-73
2021/04/06 01:53:34;;;;;;;8.30;1.50;;;1.20;99.90;;;;;;4992081;28;20184;-72
2021/04/06 01:56:12;;;;;;;8.10;1.60;;;1.20;99.90;;;;;;4992310;28;20182;-71
2021/04/06 01:58:40;;;;;;;6.23;1.83;;;1.20;99.90;;;;;;4977632;28;20274;-71
2021/04/06 02:03:35;;;;;;;7.50;1.80;;;1.20;99.90;;;;;;4992108;28;20182;-71
2021/04/06 02:06:00;;;;;;;5.40;1.73;;;1.30;99.90;;;;;;4992206;28;20657;-77
2021/04/06 02:08:28;;;;;;;5.73;1.60;;;1.20;99.90;;;;;;4993151;28;20214;-71
2021/04/06 02:10:54;;;;;;;2.27;1.23;;;1.40;99.90;;;;;;4991963;28;20182;-73
2021/04/06 02:13:19;;;;;;;2.83;1.30;;;1.40;99.90;;;;;;4993082;28;20186;-73
2021/04/06 02:16:00;;;;;;;3.57;1.30;;;1.40;99.90;;;;;;4991841;28;20560;-72
2021/04/06 02:18:27;;;;;;;3.43;1.20;;;1.50;99.90;;;;;;5007978;28;20189;-72
2021/04/06 02:20:59;;;;;;;4.07;1.20;;;1.50;99.90;;;;;;4991772;28;20181;-71
2021/04/06 02:23:26;;;;;;;3.87;1.37;;;1.60;99.90;;;;;;4991456;28;20267;-73
2021/04/06 02:25:56;;;;;;;4.47;1.27;;;1.60;99.90;;;;;;5008113;28;20227;-72
2021/04/06 02:28:25;;;;;;;5.40;1.93;;;1.60;99.90;;;;;;4975458;28;20211;-71
2021/04/06 02:30:58;;;;;;;6.00;1.57;;;1.60;99.90;;;;;;4975237;28;20183;-70
2021/04/06 02:33:31;;;;;;;5.30;1.47;;;1.60;99.90;;;;;;4991332;28;20185;-73
2021/04/06 02:36:04;;;;;;;5.37;1.60;;;1.70;99.90;;;;;;4991549;28;20207;-74
2021/04/06 02:38:33;;;;;;;7.43;1.17;;;1.70;99.90;;;;;;4991387;28;20187;-72
2021/04/06 02:41:09;;;;;;;4.67;1.47;;;1.80;99.90;;;;;;4975248;28;20183;-73
2021/04/06 02:43:49;;;;;;;8.73;1.60;;;1.70;99.90;;;;;;4991467;28;20233;-71
2021/04/06 02:46:18;;;;;;;5.83;1.40;;;1.70;99.90;;;;;;4991519;28;20250;-71
2021/04/06 02:48:44;;;;;;;6.73;1.30;;;1.80;99.90;;;;;;4991258;28;20215;-72
2021/04/06 02:51:09;;;;;;;3.53;1.13;;;1.80;99.90;;;;;;4991250;28;20174;-75
2021/04/06 02:53:36;;;;;;;3.07;1.00;;;1.80;99.90;;;;;;5007356;28;20269;-74
2021/04/06 02:56:01;;;;;;;3.47;1.30;;;1.80;99.90;;;;;;4991353;28;20660;-72
2021/04/06 02:58:27;;;;;;;5.53;1.37;;;1.80;99.90;;;;;;4990246;28;20182;-72
2021/04/06 03:00:53;;;;;;;10.60;1.60;;;1.80;99.90;;;;;;4974794;28;20193;-71
2021/04/06 03:03:20;;;;;;;2.57;1.40;;;1.80;99.90;;;;;;4975160;28;20709;-72
2021/04/06 03:05:45;;;;;;;2.73;1.27;;;1.80;99.90;;;;;;4975522;28;20242;-71
2021/04/06 03:08:11;;;;;;;6.97;1.20;;;1.80;99.90;;;;;;4958922;28;20204;-71
2021/04/06 03:10:36;;;;;;;6.37;1.70;;;1.80;99.90;;;;;;4990926;28;20178;-71
2021/04/06 03:13:06;;;;;;;7.50;1.47;;;1.80;99.90;;;;;;4976899;28;20245;-70
2021/04/06 03:15:31;;;;;;;6.50;1.30;;;1.90;99.90;;;;;;4995319;28;20261;-71
2021/04/06 03:17:57;;;;;;;11.97;1.93;;;1.90;99.90;;;;;;4963024;28;20191;-71
2021/04/06 03:20:23;;;;;;;5.90;1.87;;;1.80;99.90;;;;;;4979002;28;20175;-71
2021/04/06 03:22:49;;;;;;;7.13;1.60;;;1.90;99.90;;;;;;4979030;28;20653;-72
2021/04/06 03:25:15;;;;;;;5.50;1.60;;;1.90;99.90;;;;;;4978743;28;20196;-72
2021/04/06 03:27:45;;;;;;;5.00;1.37;;;1.90;99.90;;;;;;4978766;28;20214;-72
2021/04/06 03:30:11;;;;;;;4.70;1.27;;;1.80;99.90;;;;;;4978853;28;20262;-72
2021/04/06 03:32:37;;;;;;;3.23;1.30;;;1.70;99.90;;;;;;4962332;28;20211;-71
2021/04/06 03:35:03;;;;;;;6.20;1.40;;;1.70;99.90;;;;;;4978844;28;20278;-71
2021/04/06 03:37:29;;;;;;;5.47;1.30;;;1.60;99.90;;;;;;4994529;28;20230;-71
2021/04/06 03:39:55;;;;;;;7.27;1.40;;;1.50;99.90;;;;;;4978224;28;20670;-72
2021/04/06 03:42:26;;;;;;;3.40;1.27;;;1.50;99.90;;;;;;4994640;28;20181;-71
2021/04/06 03:45:06;;;;;;;7.53;1.43;;;1.50;99.90;;;;;;4994788;28;20641;-71
2021/04/06 03:47:57;;;;;;;4.57;1.77;;;1.40;99.90;;;;;;4978555;28;20615;-71
2021/04/06 03:50:40;;;;;;;5.63;1.37;;;1.40;99.90;;;;;;4977970;28;20184;-75
2021/04/06 03:53:09;;;;;;;4.20;1.33;;;1.50;99.90;;;;;;4994474;28;20175;-72
2021/04/06 03:55:35;;;;;;;4.57;1.30;;;1.40;99.90;;;;;;4994565;28;20195;-75
2021/04/06 03:58:08;;;;;;;4.90;1.53;;;1.50;99.90;;;;;;4994219;28;20590;-71
2021/04/06 04:00:33;;;;;;;6.73;1.47;;;1.50;99.90;;;;;;4978903;28;20182;-71
2021/04/06 04:03:00;;;;;;;6.30;1.47;;;1.50;99.90;;;;;;4978125;28;20183;-71
2021/04/06 04:05:26;;;;;;;5.20;1.40;;;1.50;99.90;;;;;;4978214;28;20278;-73
2021/04/06 04:07:51;;;;;;;6.43;1.20;;;1.50;99.90;;;;;;4961716;28;20232;-71
2021/04/06 04:10:17;;;;;;;6.53;1.63;;;1.60;99.90;;;;;;4961482;28;20626;-72
2021/04/06 04:12:42;;;;;;;7.67;1.90;;;1.60;99.90;;;;;;4977953;28;20175;-73
2021/04/06 04:15:09;;;;;;;7.10;2.13;;;1.60;99.90;;;;;;4977820;28;20636;-72
2021/04/06 04:17:35;;;;;;;8.17;1.63;;;1.60;99.90;;;;;;4994202;28;20256;-72
2021/04/06 04:20:04;;;;;;;7.93;1.50;;;1.60;99.90;;;;;;4977672;28;20225;-72
2021/04/06 04:22:30;;;;;;;5.87;1.60;;;1.60;99.90;;;;;;4994203;28;20178;-72
2021/04/06 04:24:55;;;;;;;5.27;1.53;;;1.50;99.90;;;;;;4992614;28;20255;-73
2021/04/06 04:27:21;;;;;;;6.27;1.57;;;1.50;99.90;;;;;;4994996;28;20574;-71
2021/04/06 04:29:46;;;;;;;8.40;1.83;;;1.50;99.90;;;;;;4994999;28;20719;-71
2021/04/06 04:32:13;;;;;;;8.03;1.90;;;1.40;99.90;;;;;;4993754;28;20641;-72
2021/04/06 04:34:39;;;;;;;10.77;2.00;;;1.40;99.90;;;;;;4977551;28;20201;-71
2021/04/06 04:37:04;;;;;;;6.63;2.00;;;1.50;99.90;;;;;;4977627;28;20246;-72
2021/04/06 04:39:30;;;;;;;8.37;1.83;;;1.60;99.90;;;;;;4993804;28;20175;-71
2021/04/06 04:41:55;;;;;;;4.67;1.70;;;1.60;99.90;;;;;;4994576;28;20235;-74
2021/04/06 04:44:21;;;;;;;10.77;2.13;;;1.70;99.90;;;;;;4994511;28;20214;-70
2021/04/06 04:46:47;;;;;;;8.37;1.80;;;1.60;99.90;;;;;;4977426;28;20183;-73
2021/04/06 04:49:12;;;;;;;7.80;2.03;;;1.70;99.90;;;;;;4994777;28;20520;-72
2021/04/06 04:51:38;;;;;;;11.50;2.07;;;1.70;99.90;;;;;;4993354;28;20622;-71
2021/04/06 04:54:04;;;;;;;7.63;1.77;;;1.70;99.90;;;;;;4994648;28;20711;-71
2021/04/06 04:56:29;;;;;;;9.60;2.33;;;1.70;99.90;;;;;;4977082;28;20182;-71
2021/04/06 04:58:55;;;;;;;7.90;2.10;;;1.70;99.90;;;;;;4993214;28;20670;-72
2021/04/06 05:01:20;;;;;;;8.70;1.83;;;1.70;99.90;;;;;;4977086;28;20310;-73
2021/04/06 05:03:46;;;;;;;9.63;2.00;;;1.60;99.90;;;;;;4993159;28;20282;-73
2021/04/06 05:06:12;;;;;;;8.83;2.43;;;1.50;99.90;;;;;;4977214;28;20177;-72
2021/04/06 05:08:38;;;;;;;7.73;2.20;;;1.60;99.90;;;;;;4992842;28;20605;-72
2021/04/06 05:11:03;;;;;;;9.23;2.17;;;1.60;99.90;;;;;;4993081;28;20639;-71
2021/04/06 05:13:29;;;;;;;6.43;2.13;;;1.60;99.90;;;;;;4976661;28;20183;-72
2021/04/06 06:07:35;;;;;;;13.17;2.80;;;2.10;99.90;;;;;;4975327;28;20703;-79
2021/04/06 06:10:25;;;;;;;14.07;2.37;;;2.30;99.90;;;;;;4943639;28;20180;-80
2021/04/06 06:12:52;;;;;;;10.23;2.53;;;2.50;99.90;;;;;;4975199;28;20663;-79
2021/04/06 06:15:18;;;;;;;8.73;2.10;;;3.00;99.90;;;;;;4943294;28;20254;-80
2021/04/06 06:18:01;;;;;;;9.40;2.03;;;3.00;99.90;;;;;;4975319;28;20183;-80
2021/04/06 06:20:27;;;;;;;9.27;2.03;;;3.00;99.90;;;;;;4959309;28;20207;-80
2021/04/06 06:22:52;;;;;;;11.70;2.70;;;2.90;99.90;;;;;;4955496;28;20184;-79
2021/04/06 06:25:18;;;;;;;8.37;1.90;;;3.10;99.90;;;;;;4956088;29;20288;-79
2021/04/06 06:27:45;;;;;;;9.40;2.10;;;3.50;99.90;;;;;;4965754;28;20202;-77
2021/04/06 06:33:17;;;;;;;6.43;1.90;;;4.90;99.90;;;;;;4992370;28;20164;-79
2021/04/06 06:35:44;;;;;;;7.80;1.83;;;5.30;99.90;;;;;;4975745;28;20203;-79
2021/04/06 06:38:20;;;;;;;10.80;1.90;;;6.00;99.90;;;;;;4964797;28;20286;-77
2021/04/06 06:40:47;;;;;;;8.20;2.00;;;5.90;99.90;;;;;;4969931;28;20290;-77
2021/04/06 06:43:13;;;;;;;8.27;1.93;;;5.90;99.90;;;;;;4948689;28;20282;-77
2021/04/06 06:45:39;;;;;;;7.50;1.63;;;5.90;99.90;;;;;;4939869;28;20200;-77
2021/04/06 06:48:05;;;;;;;10.50;2.40;;;5.90;99.90;;;;;;4938622;28;20564;-77
2021/04/06 06:50:31;;;;;;;9.20;2.10;;;5.50;99.90;;;;;;4971559;28;20657;-77
2021/04/06 06:52:57;;;;;;;13.07;2.00;;;4.60;99.90;;;;;;4971968;28;20192;-77
2021/04/06 06:55:24;;;;;;;7.37;1.83;;;4.30;99.90;;;;;;4971922;28;20671;-77
2021/04/06 06:57:50;;;;;;;7.67;1.80;;;4.00;99.90;;;;;;4972108;28;20179;-77
2021/04/06 07:00:18;;;;;;;8.57;1.90;;;3.80;99.90;;;;;;4955754;28;20181;-77
2021/04/06 07:02:44;;;;;;;7.83;2.20;;;3.70;99.90;;;;;;4952860;28;20244;-77
2021/04/06 07:05:29;;;;;;;10.83;2.40;;;4.00;99.90;;;;;;4955657;28;20227;-76
2021/04/06 07:08:05;;;;;;;4.90;1.67;;;4.40;99.90;;;;;;4971686;28;20205;-77
2021/04/06 07:10:35;;;;;;;9.53;2.20;;;5.00;99.90;;;;;;4941121;28;20654;-77
2021/04/06 07:13:04;;;;;;;8.27;1.80;;;6.60;99.90;;;;;;4940106;28;20195;-77
2021/04/06 07:15:30;;;;;;;10.53;2.03;;;6.90;99.90;;;;;;4973034;28;20199;-75
2021/04/06 07:18:00;;;;;;;7.53;1.57;;;6.40;99.90;;;;;;4956716;28;20192;-77
2021/04/06 07:20:25;;;;;;;8.97;1.97;;;5.90;99.90;;;;;;4958186;28;20198;-77
2021/04/06 07:22:52;;;;;;;7.00;1.50;;;5.00;99.90;;;;;;4959902;28;20250;-76
2021/04/06 07:25:18;;;;;;;5.70;1.50;;;4.60;99.90;;;;;;4969909;28;20206;-78
2021/04/06 07:27:44;;;;;;;10.17;1.57;;;4.70;99.90;;;;;;4975157;28;20669;-79
2021/04/06 07:30:11;;;;;;;10.33;2.50;;;4.90;99.90;;;;;;4959215;28;20234;-75
2021/04/06 07:32:40;;;;;;;6.17;1.77;;;4.80;99.90;;;;;;4974982;28;20180;-75
2021/04/06 07:35:10;;;;;;;11.87;2.27;;;4.70;99.90;;;;;;4950078;28;20210;-76
2021/04/06 07:37:44;;;;;;;7.20;2.00;;;4.70;99.90;;;;;;4952211;29;20190;-75
2021/04/06 07:40:11;;;;;;;8.23;1.70;;;5.00;99.90;;;;;;4952414;29;20188;-76
2021/04/06 07:42:39;;;;;;;10.03;2.00;;;4.70;99.90;;;;;;4968474;28;20194;-75
2021/04/06 07:45:24;;;;;;;9.03;1.97;;;4.60;99.90;;;;;;4968847;28;20207;-78
2021/04/06 07:47:50;;;;;;;8.87;1.90;;;4.70;99.90;;;;;;4951766;29;20726;-78
2021/04/06 07:50:43;;;;;;;7.67;2.00;;;4.90;99.90;;;;;;4952377;29;20184;-77
2021/04/06 07:53:25;;;;;;;7.80;1.70;;;5.00;99.90;;;;;;4952329;29;20264;-77
2021/04/06 07:55:55;;;;;;;6.53;1.73;;;4.70;99.90;;;;;;4968292;28;20681;-77
2021/04/06 07:58:46;;;;;;;9.90;1.80;;;4.70;99.90;;;;;;4948968;28;20191;-78
2021/04/06 08:01:16;;;;;;;7.80;1.83;;;4.70;99.90;;;;;;4974078;28;20187;-78
2021/04/06 08:03:59;;;;;;;7.53;1.63;;;4.90;99.90;;;;;;4943588;28;20205;-78
2021/04/06 08:06:39;;;;;;;7.83;1.80;;;5.00;99.90;;;;;;4947600;28;20226;-78
2021/04/06 08:09:23;;;;;;;5.20;1.30;;;4.70;99.90;;;;;;4942732;28;20578;-80
2021/04/06 08:12:08;;;;;;;7.33;1.67;;;4.40;99.90;;;;;;4961576;28;20560;-80
2021/04/06 08:14:44;;;;;;;4.70;1.57;;;4.30;99.90;;;;;;4962965;28;20184;-79
2021/04/06 08:17:25;;;;;;;8.43;2.20;;;4.70;99.90;;;;;;4986122;28;20178;-79
2021/04/06 08:20:10;;;;;;;5.50;1.33;;;5.00;99.90;;;;;;4995578;28;20603;-79
2021/04/06 08:23:04;;;;;;;6.53;1.60;;;5.30;99.90;;;;;;4998958;28;20182;-77
2021/04/06 08:25:29;;;;;;;7.57;1.73;;;5.60;99.90;;;;;;4984615;28;20208;-79
2021/04/06 08:28:02;;;;;;;5.80;1.50;;;5.70;99.90;;;;;;4996975;28;20701;-79
2021/04/06 08:30:32;;;;;;;9.57;1.60;;;5.60;99.90;;;;;;4964779;28;20172;-79
2021/04/06 08:32:57;;;;;;;6.67;2.00;;;5.20;99.90;;;;;;4963688;28;20183;-79
2021/04/06 08:40:56;;;;;;;3.77;1.23;;;4.60;99.90;;;;;;4976022;28;20283;-76
2021/04/06 08:43:22;;;;;;;4.30;1.43;;;4.40;99.90;;;;;;4974382;28;20200;-76
2021/04/06 08:45:58;;;;;;;6.37;1.50;;;4.50;99.90;;;;;;4974284;28;20203;-77
2021/04/06 08:48:50;;;;;;;4.17;1.20;;;5.00;99.90;;;;;;4974525;28;20202;-76
2021/04/06 08:51:16;;;;;;;6.50;1.43;;;5.60;99.90;;;;;;4974216;28;20236;-76
2021/04/06 08:53:41;;;;;;;7.37;1.70;;;6.00;99.90;;;;;;4973886;28;20177;-76
2021/04/06 08:56:17;;;;;;;5.10;1.40;;;6.30;99.90;;;;;;4975847;28;20193;-76
2021/04/06 08:58:43;;;;;;;5.90;1.60;;;6.70;99.90;;;;;;4967404;28;20586;-77
2021/04/06 09:01:08;;;;;;;5.23;1.80;;;7.30;99.90;;;;;;4961474;28;20215;-77
2021/04/06 09:03:34;;;;;;;5.80;1.57;;;7.70;99.90;;;;;;4944435;28;20199;-77
2021/04/06 09:06:08;;;;;;;5.63;1.53;;;8.20;99.90;;;;;;4957122;29;20213;-78
2021/04/06 09:08:49;;;;;;;6.10;1.40;;;8.40;99.90;;;;;;4957616;28;20209;-77
2021/04/06 09:11:21;;;;;;;6.40;1.70;;;7.60;99.90;;;;;;4955569;28;20182;-77
2021/04/06 09:13:51;;;;;;;5.37;1.80;;;7.10;99.90;;;;;;4972492;28;20654;-77
2021/04/06 09:16:23;;;;;;;5.73;1.70;;;6.90;99.90;;;;;;4971569;28;20568;-78
2021/04/06 09:18:56;;;;;;;9.53;2.10;;;7.40;99.90;;;;;;4956696;28;20275;-80
2021/04/06 09:21:26;;;;;;;6.27;1.67;;;8.70;99.90;;;;;;4955575;28;20193;-79
2021/04/06 09:23:59;;;;;;;4.43;1.70;;;9.40;99.90;;;;;;4965614;28;20194;-78
2021/04/06 09:26:25;;;;;;;8.07;1.60;;;9.50;99.90;;;;;;4964067;28;20291;-79
2021/04/06 09:29:09;;;;;;;5.37;1.40;;;9.90;99.90;;;;;;4957608;28;20378;-77
2021/04/06 09:31:40;;;;;;;7.77;1.53;;;10.00;99.90;;;;;;4964614;28;20185;-77
2021/04/06 09:34:11;;;;;;;11.47;1.73;;;9.60;99.90;;;;;;4961324;28;20173;-77
2021/04/06 09:36:37;;;;;;;4.50;1.30;;;8.40;99.90;;;;;;4939139;29;20198;-78
2021/04/06 09:39:04;;;;;;;5.80;1.30;;;7.30;99.90;;;;;;4938688;29;20187;-79
2021/04/06 09:41:37;;;;;;;5.90;1.80;;;6.90;99.90;;;;;;4938442;29;20219;-79
2021/04/06 09:44:06;;;;;;;11.90;1.83;;;6.60;99.90;;;;;;4938996;29;20174;-78
2021/04/06 09:46:37;;;;;;;5.97;1.43;;;6.50;99.90;;;;;;4938543;29;20209;-78
2021/04/06 09:49:03;;;;;;;3.80;1.30;;;6.30;99.90;;;;;;4939119;29;20689;-76
2021/04/06 09:51:29;;;;;;;3.73;1.50;;;6.10;99.90;;;;;;4938371;29;20184;-77
2021/04/06 09:53:55;;;;;;;6.07;1.73;;;5.80;99.90;;;;;;4941350;28;20236;-77
2021/04/06 09:56:20;;;;;;;4.97;1.80;;;5.80;99.90;;;;;;4973711;28;20206;-78
2021/04/06 09:58:46;;;;;;;9.33;1.80;;;5.70;99.90;;;;;;4972375;28;20187;-78
2021/04/06 10:01:20;;;;;;;5.83;1.20;;;5.60;99.90;;;;;;4956782;28;20181;-80
2021/04/06 10:03:53;;;;;;;4.43;1.40;;;5.20;99.90;;;;;;4959921;28;20234;-77
2021/04/06 10:06:18;;;;;;;5.53;1.30;;;4.80;99.90;;;;;;4956821;28;20212;-78
2021/04/06 10:08:44;;;;;;;3.43;1.30;;;4.10;99.90;;;;;;4961933;28;20232;-77
2021/04/06 10:11:10;;;;;;;2.10;1.27;;;3.50;99.90;;;;;;4975443;28;20172;-77
2021/04/06 10:13:37;;;;;;;3.63;1.10;;;3.40;99.90;;;;;;4955946;28;20594;-81
2021/04/06 10:16:05;;;;;;;5.87;1.40;;;3.20;99.90;;;;;;4957641;28;20308;-79
2021/04/06 10:18:37;;;;;;;4.77;1.47;;;3.20;99.90;;;;;;4957518;28;20190;-79
2021/04/06 10:21:03;;;;;;;4.20;1.10;;;3.50;99.90;;;;;;4957703;28;20183;-79
2021/04/06 10:23:33;;;;;;;2.90;1.27;;;4.10;99.90;;;;;;4957636;28;20185;-79
2021/04/06 10:25:58;;;;;;;3.23;1.10;;;3.90;99.90;;;;;;4957423;28;20228;-79
2021/04/06 10:28:26;;;;;;;2.67;1.20;;;4.20;99.90;;;;;;4973846;28;20556;-79
2021/04/06 10:31:03;;;;;;;5.17;1.50;;;4.20;99.90;;;;;;4957728;28;20177;-79
2021/04/06 10:33:30;;;;;;;4.63;1.23;;;4.40;99.90;;;;;;4957740;28;20658;-78
2021/04/06 10:35:59;;;;;;;5.83;1.30;;;4.60;99.90;;;;;;4973072;28;20350;-78
2021/04/06 10:38:28;;;;;;;5.17;1.47;;;4.60;99.90;;;;;;4956490;28;20196;-78
2021/04/06 10:41:13;;;;;;;7.53;1.30;;;4.70;99.90;;;;;;4956035;28;20191;-77
2021/04/06 10:43:41;;;;;;;3.30;1.10;;;4.70;99.90;;;;;;4970772;28;20188;-77
2021/04/06 10:46:07;;;;;;;2.83;1.20;;;4.40;99.90;;;;;;4973042;28;20195;-77
2021/04/06 10:48:35;;;;;;;3.60;0.77;;;4.10;99.90;;;;;;4971539;28;20200;-77
2021/04/06 10:51:12;;;;;;;2.77;1.10;;;4.20;99.90;;;;;;4946038;28;20638;-77
2021/04/06 10:53:40;;;;;;;2.77;1.30;;;4.00;99.90;;;;;;4938403;28;20415;-77
2021/04/06 10:56:10;;;;;;;3.73;1.20;;;4.20;99.90;;;;;;4955599;28;20193;-77
2021/04/06 10:58:48;;;;;;;5.57;1.30;;;4.40;99.90;;;;;;4971452;28;20186;-77
2021/04/06 11:01:18;;;;;;;3.77;1.30;;;4.50;99.90;;;;;;4971428;28;20278;-77
2021/04/06 11:03:49;;;;;;;1.67;0.97;;;4.70;99.90;;;;;;4952582;28;20240;-77
2021/04/06 11:06:26;;;;;;;2.37;1.30;;;4.80;99.90;;;;;;4952730;28;20584;-77
2021/04/06 11:08:53;;;;;;;2.07;1.10;;;5.10;99.90;;;;;;4970027;28;20314;-77
2021/04/06 11:11:21;;;;;;;3.50;1.00;;;4.90;99.90;;;;;;4955645;28;20536;-77
2021/04/06 11:13:46;;;;;;;3.10;1.00;;;4.20;99.90;;;;;;4969149;28;20579;-77
2021/04/06 11:16:12;;;;;;;1.30;1.00;;;3.70;99.90;;;;;;4953691;28;20292;-77
2021/04/06 11:18:38;;;;;;;3.93;1.00;;;3.70;99.90;;;;;;4955562;28;20211;-77
2021/04/06 11:21:04;;;;;;;3.67;1.37;;;3.40;99.90;;;;;;4955002;28;20561;-77
2021/04/06 11:23:30;;;;;;;2.67;1.30;;;3.00;99.90;;;;;;4978135;23;20605;-74
2021/04/06 11:25:55;;;;;;;4.00;1.13;;;2.70;99.90;;;;;;4969662;28;20183;-74
2021/04/06 11:28:21;;;;;;;3.33;1.30;;;2.60;99.90;;;;;;4969833;28;20206;-75
2021/04/06 11:30:46;;;;;;;3.10;1.00;;;2.50;99.90;;;;;;4969605;28;20182;-75
2021/04/06 11:33:12;;;;;;;2.13;1.13;;;2.60;99.90;;;;;;4950906;28;20200;-74
2021/04/06 11:35:37;;;;;;;2.03;1.23;;;2.70;99.90;;;;;;4938090;29;20190;-76
2021/04/06 11:38:03;;;;;;;2.83;1.17;;;3.00;99.90;;;;;;4953747;28;20280;-76
2021/04/06 11:40:28;;;;;;;4.93;1.53;;;3.00;99.90;;;;;;4939468;29;20315;-74
2021/04/06 11:42:54;;;;;;;2.97;1.37;;;3.40;99.90;;;;;;4939814;29;20291;-74
2021/04/06 11:45:23;;;;;;;4.30;1.60;;;3.70;99.90;;;;;;4924096;29;20675;-74
2021/04/06 11:47:52;;;;;;;4.23;1.53;;;4.10;99.90;;;;;;4956188;29;20185;-74
2021/04/06 11:50:18;;;;;;;4.27;1.50;;;4.40;99.90;;;;;;4940044;29;20215;-76
2021/04/06 11:52:44;;;;;;;3.60;1.10;;;4.60;99.90;;;;;;4939874;29;20197;-76
2021/04/06 11:55:10;;;;;;;3.50;1.47;;;4.60;99.90;;;;;;4954297;28;20595;-74
2021/04/06 11:57:35;;;;;;;2.47;1.20;;;4.90;99.90;;;;;;4955686;28;20194;-73
2021/04/06 12:00:01;;;;;;;5.73;1.50;;;5.20;99.90;;;;;;4956527;28;20271;-76
2021/04/06 12:02:26;;;;;;;3.90;1.53;;;5.20;99.90;;;;;;4956414;28;20177;-75
2021/04/06 12:04:52;;;;;;;2.47;1.33;;;5.20;99.90;;;;;;4939900;29;20185;-73
2021/04/06 12:07:17;;;;;;;3.23;1.50;;;5.40;99.90;;;;;;4939645;29;20220;-73
2021/04/06 12:09:43;;;;;;;2.77;1.40;;;5.40;99.90;;;;;;4956740;28;20234;-75
2021/04/06 12:12:09;;;;;;;6.03;1.90;;;5.20;99.90;;;;;;4939518;29;20276;-75
2021/04/06 12:14:34;;;;;;;4.50;1.60;;;5.10;99.90;;;;;;4955634;29;20208;-75
2021/04/06 12:17:00;;;;;;;6.03;1.83;;;4.90;99.90;;;;;;4939537;29;20175;-74
2021/04/06 12:19:25;;;;;;;7.07;1.90;;;4.80;99.90;;;;;;4956763;28;20701;-75
2021/04/06 12:21:51;;;;;;;4.20;1.67;;;4.90;99.90;;;;;;4956522;28;20189;-75
2021/04/06 12:24:17;;;;;;;3.17;1.03;;;5.00;99.90;;;;;;4955212;29;20255;-74
2021/04/06 12:26:42;;;;;;;5.00;1.50;;;4.70;99.90;;;;;;4956644;28;20174;-75
2021/04/06 12:29:08;;;;;;;6.27;1.60;;;4.80;99.90;;;;;;4955329;28;20214;-76
2021/04/06 12:31:33;;;;;;;7.60;1.97;;;4.70;99.90;;;;;;4959696;28;20232;-76
2021/04/06 12:33:59;;;;;;;4.43;1.77;;;4.80;99.90;;;;;;4959552;28;20280;-76
2021/04/06 12:36:24;;;;;;;4.47;1.57;;;4.80;99.90;;;;;;4967671;28;20189;-76
2021/04/06 12:38:50;;;;;;;5.47;1.50;;;4.70;99.90;;;;;;4955202;28;20729;-74
2021/04/06 12:41:16;;;;;;;4.20;1.67;;;4.60;99.90;;;;;;4939926;29;20188;-75
2021/04/06 12:43:41;;;;;;;5.00;1.43;;;4.40;99.90;;;;;;4942777;29;20207;-76
2021/04/06 12:46:07;;;;;;;3.23;1.40;;;4.40;99.90;;;;;;4926244;29;20189;-78
2021/04/06 12:48:32;;;;;;;2.23;1.30;;;4.20;99.90;;;;;;4958287;28;20205;-78
2021/04/06 12:50:58;;;;;;;3.40;1.10;;;4.00;99.90;;;;;;4957979;29;20243;-76
2021/04/06 12:53:24;;;;;;;3.53;1.13;;;3.80;99.90;;;;;;4958389;29;20251;-77
2021/04/06 12:55:49;;;;;;;3.80;1.30;;;3.80;99.90;;;;;;4973132;28;20184;-78
2021/04/06 12:58:15;;;;;;;6.10;1.60;;;3.60;99.90;;;;;;4956333;28;20174;-77
2021/04/06 13:00:40;;;;;;;4.97;1.50;;;3.40;99.90;;;;;;4938729;29;20609;-74
2021/04/06 13:03:06;;;;;;;4.30;1.80;;;3.20;99.90;;;;;;4938657;29;20193;-74
2021/04/06 13:05:32;;;;;;;7.30;1.93;;;3.00;99.90;;;;;;4923316;29;20193;-74
2021/04/06 13:07:57;;;;;;;5.40;1.70;;;2.90;99.90;;;;;;4955981;28;20354;-73
2021/04/06 13:10:23;;;;;;;4.73;1.60;;;2.80;99.90;;;;;;4966016;28;20181;-74
2021/04/06 13:12:50;;;;;;;5.83;1.80;;;2.60;99.90;;;;;;4954458;29;20280;-74
2021/04/06 13:15:15;;;;;;;3.23;1.77;;;2.60;99.90;;;;;;4954773;29;20177;-75
2021/04/06 13:17:43;;;;;;;4.60;1.93;;;;;;;;;;4962500;28;20190;-75
2021/04/06 13:20:14;;;;;;;2.70;1.60;;;;;;;;;;4974382;28;20196;-81
2021/04/06 13:22:42;;;;;;;3.03;1.60;;;;;;;;;;4973750;28;20181;-76
2021/04/06 13:25:10;;;;;;;4.10;1.60;;;;;;;;;;4975058;28;20192;-75
2021/04/06 13:27:37;;;;;;;5.67;1.80;;;;;;;;;;4973729;28;20202;-76
2021/04/06 13:30:05;;;;;;;4.03;1.77;;;;;;;;;;4973706;28;20643;-73
2021/04/06 13:32:32;;;;;;;4.93;1.80;;;;;;;;;;4973471;28;20183;-73
2021/04/06 13:34:59;;;;;;;3.83;1.50;;;;;;;;;;4975196;28;20251;-77
2021/04/06 13:37:25;;;;;;;2.50;1.40;;;;;;;;;;4973919;28;20181;-74
2021/04/06 13:39:52;;;;;;;3.77;1.20;;;;;;;;;;4974815;28;20207;-75
2021/04/06 13:42:20;;;;;;;1.80;1.00;;;;;;;;;;4956833;28;20188;-74
2021/04/06 13:44:47;;;;;;;3.00;0.93;;;;;;;;;;4955242;28;20206;-74
2021/04/06 13:47:14;;;;;;;4.63;0.90;;;;;;;;;;4955570;28;20181;-77
2021/04/06 13:49:40;;;;;;;3.43;1.10;;;;;;;;;;4953990;29;20723;-78
2021/04/06 13:52:08;;;;;;;3.60;1.27;;;;;;;;;;4954449;29;20181;-77
2021/04/06 13:54:34;;;;;;;3.73;1.10;;;;;;;;;;4954643;28;20676;-80
2021/04/06 13:57:02;;;;;;;3.20;1.13;;;;;;;;;;4954828;28;20239;-77
2021/04/06 13:59:30;;;;;;;2.90;1.20;;;;;;;;;;4946857;29;20227;-78
2021/04/06 14:01:58;;;;;;;3.03;1.13;;;;;;;;;;4953528;28;20192;-77
2021/04/06 14:04:25;;;;;;;4.47;1.30;;;;;;;;;;4953499;28;20217;-78
2021/04/06 14:06:53;;;;;;;3.63;0.97;;;;;;;;;;4954708;28;20189;-78
2021/04/06 14:09:19;;;;;;;5.20;1.53;;;;;;;;;;4953611;28;20353;-78
2021/04/06 14:11:45;;;;;;;3.57;1.20;;;;;;;;;;4953316;29;20649;-78